Time;durP1;ratioP1;P1;durP2;ratioP2;P2;SDS_P1;SDS_P2;PMS_P1;PMS_P2;Temp;Humidity;BMP_temperature;BMP_pressure;BME280_temperature;BME280_humidity;BME280_pressure;Samples;Min_cycle;Max_cycle;Signal;HPM_P1;HPM_P2
2020/12/23 00:00:52;;;;;;;8.67;3.00;;;7.70;99.90;;;;;;5030419;28;20195;-70
2020/12/23 00:03:18;;;;;;;9.10;2.20;;;7.70;99.90;;;;;;5031899;28;20429;-70
2020/12/23 00:05:44;;;;;;;11.93;3.53;;;7.70;99.90;;;;;;5032073;28;20205;-70
2020/12/23 00:08:12;;;;;;;6.57;2.00;;;7.70;99.90;;;;;;5030963;28;20681;-69
2020/12/23 00:10:38;;;;;;;7.33;2.63;;;7.70;99.90;;;;;;5031385;28;20222;-70
2020/12/23 00:13:03;;;;;;;5.40;2.07;;;7.70;99.90;;;;;;5031818;28;20399;-70
2020/12/23 00:15:29;;;;;;;7.70;1.93;;;7.70;99.90;;;;;;5031723;28;20246;-70
2020/12/23 00:17:54;;;;;;;8.63;1.77;;;7.70;99.90;;;;;;5031373;28;20171;-70
2020/12/23 00:20:20;;;;;;;14.10;2.67;;;7.70;99.90;;;;;;5031804;28;20207;-70
2020/12/23 00:22:46;;;;;;;9.60;2.90;;;7.80;99.90;;;;;;5031283;28;20179;-70
2020/12/23 00:25:11;;;;;;;11.43;2.60;;;7.70;99.90;;;;;;5031757;28;20773;-69
2020/12/23 00:27:37;;;;;;;11.53;2.43;;;7.70;99.90;;;;;;5031386;28;20640;-70
2020/12/23 00:30:04;;;;;;;9.73;2.80;;;7.70;99.90;;;;;;5031498;28;20553;-69
2020/12/23 00:32:29;;;;;;;9.77;2.30;;;7.70;99.90;;;;;;5031293;28;20180;-70
2020/12/23 00:34:56;;;;;;;5.90;2.47;;;7.70;99.90;;;;;;5031537;28;20908;-69
2020/12/23 00:37:22;;;;;;;3.63;2.50;;;7.70;99.90;;;;;;5031216;28;20167;-69
2020/12/23 00:39:47;;;;;;;8.07;2.20;;;7.70;99.90;;;;;;5031374;28;20470;-69
2020/12/23 00:42:13;;;;;;;13.87;3.07;;;7.70;99.90;;;;;;5031088;28;20438;-70
2020/12/23 00:44:38;;;;;;;3.90;1.90;;;7.80;99.90;;;;;;5031706;28;20169;-71
2020/12/23 00:47:04;;;;;;;6.83;2.07;;;7.70;99.90;;;;;;5031449;28;20588;-70
2020/12/23 00:49:29;;;;;;;19.50;3.80;;;7.70;99.90;;;;;;5031263;28;20245;-69
2020/12/23 00:51:55;;;;;;;6.23;2.20;;;7.70;99.90;;;;;;5030927;28;20172;-70
2020/12/23 00:54:20;;;;;;;8.10;2.00;;;7.70;99.90;;;;;;5031478;28;20522;-70
2020/12/23 00:56:45;;;;;;;6.27;2.33;;;7.70;99.90;;;;;;5031363;28;20261;-70
2020/12/23 00:59:11;;;;;;;12.43;3.30;;;7.70;99.90;;;;;;5031607;28;20192;-70
2020/12/23 01:01:37;;;;;;;8.40;2.87;;;7.70;99.90;;;;;;5031381;28;20184;-70
2020/12/23 01:04:02;;;;;;;7.00;1.90;;;7.70;99.90;;;;;;5030939;28;20203;-70
2020/12/23 01:06:28;;;;;;;9.13;2.07;;;7.60;99.90;;;;;;5031255;28;20184;-70
2020/12/23 01:08:53;;;;;;;9.60;2.50;;;7.60;99.90;;;;;;5031007;28;20215;-71
2020/12/23 01:11:19;;;;;;;13.47;2.93;;;7.80;99.90;;;;;;5031363;28;20172;-71
2020/12/23 01:13:44;;;;;;;10.93;2.20;;;7.70;99.90;;;;;;5031091;28;20179;-70
2020/12/23 01:16:10;;;;;;;8.23;2.00;;;7.70;99.90;;;;;;5031204;28;20172;-70
2020/12/23 01:18:35;;;;;;;9.53;2.27;;;7.70;99.90;;;;;;5030741;28;20553;-69
2020/12/23 01:21:01;;;;;;;7.90;2.50;;;7.70;99.90;;;;;;5032258;28;20171;-69
2020/12/23 01:23:26;;;;;;;8.70;2.27;;;7.70;99.90;;;;;;5034314;28;20644;-69
2020/12/23 01:25:53;;;;;;;9.20;2.27;;;7.70;99.90;;;;;;5034669;28;20171;-69
2020/12/23 01:28:18;;;;;;;4.00;1.87;;;7.70;99.90;;;;;;5034214;28;20231;-69
2020/12/23 01:30:44;;;;;;;5.20;1.97;;;7.80;99.90;;;;;;5034652;28;21008;-69
2020/12/23 01:33:10;;;;;;;7.23;2.40;;;7.80;99.90;;;;;;5034288;28;20587;-69
2020/12/23 01:35:35;;;;;;;5.40;2.77;;;7.70;99.90;;;;;;5034487;28;20168;-70
2020/12/23 01:38:00;;;;;;;11.80;3.33;;;7.70;99.90;;;;;;5034537;28;20533;-70
2020/12/23 01:40:26;;;;;;;6.47;2.30;;;7.70;99.90;;;;;;5033069;28;20234;-70
2020/12/23 01:42:51;;;;;;;11.33;2.77;;;7.80;99.90;;;;;;5034471;28;20177;-70
2020/12/23 01:45:17;;;;;;;7.77;2.70;;;7.70;99.90;;;;;;5033968;28;20266;-70
2020/12/23 01:47:46;;;;;;;5.50;2.77;;;7.70;99.90;;;;;;5033906;28;20644;-70
2020/12/23 01:50:13;;;;;;;5.30;2.00;;;7.70;99.90;;;;;;5034393;28;20298;-70
2020/12/23 01:52:38;;;;;;;5.93;2.83;;;7.80;99.90;;;;;;5034104;28;20468;-70
2020/12/23 01:55:08;;;;;;;4.83;1.70;;;7.80;99.90;;;;;;5033814;28;20410;-70
2020/12/23 01:57:34;;;;;;;7.40;2.30;;;7.70;99.90;;;;;;5032936;28;20165;-70
2020/12/23 02:00:00;;;;;;;12.33;2.07;;;7.70;99.90;;;;;;5032808;28;20933;-70
2020/12/23 02:02:30;;;;;;;10.27;2.90;;;7.80;99.90;;;;;;5033868;28;20410;-70
2020/12/23 02:05:05;;;;;;;5.10;2.03;;;7.80;99.90;;;;;;5034068;28;20403;-70
2020/12/23 02:07:31;;;;;;;9.33;2.00;;;7.80;99.90;;;;;;5033806;28;20760;-70
2020/12/23 02:09:59;;;;;;;5.43;1.97;;;7.80;99.90;;;;;;5034287;28;20450;-70
2020/12/23 02:12:24;;;;;;;3.33;1.90;;;7.80;99.90;;;;;;5032920;28;20402;-70
2020/12/23 02:14:51;;;;;;;9.80;2.40;;;7.70;99.90;;;;;;5033580;28;20403;-70
2020/12/23 02:17:17;;;;;;;10.30;2.77;;;7.80;99.90;;;;;;5033268;28;20178;-69
2020/12/23 02:19:49;;;;;;;5.10;1.77;;;7.70;99.90;;;;;;5033854;28;20437;-69
2020/12/23 02:22:22;;;;;;;7.53;2.00;;;7.80;99.90;;;;;;5033711;28;20415;-69
2020/12/23 02:24:52;;;;;;;8.70;3.30;;;7.70;99.90;;;;;;5033205;28;20802;-72
2020/12/23 02:27:21;;;;;;;11.23;1.60;;;7.80;99.90;;;;;;5033249;28;20402;-70
2020/12/23 02:29:49;;;;;;;9.20;2.60;;;7.80;99.90;;;;;;5033462;28;20809;-70
2020/12/23 02:32:15;;;;;;;5.63;1.70;;;7.80;99.90;;;;;;5033666;28;20875;-70
2020/12/23 02:34:41;;;;;;;6.37;1.80;;;7.80;99.90;;;;;;5033586;28;20410;-70
2020/12/23 02:37:07;;;;;;;7.67;2.17;;;7.80;99.90;;;;;;5032976;28;20402;-70
2020/12/23 02:39:33;;;;;;;7.27;2.57;;;7.80;99.90;;;;;;5033277;28;20184;-70
2020/12/23 02:42:00;;;;;;;6.57;2.03;;;7.80;99.90;;;;;;5033271;28;20408;-70
2020/12/23 02:44:26;;;;;;;11.33;2.70;;;7.90;99.90;;;;;;5033029;28;20442;-70
2020/12/23 02:47:03;;;;;;;5.17;3.00;;;7.80;99.90;;;;;;5032544;28;20872;-70
2020/12/23 02:49:29;;;;;;;7.13;2.13;;;7.90;99.90;;;;;;5032860;28;20200;-70
2020/12/23 02:51:56;;;;;;;10.47;2.00;;;7.90;99.90;;;;;;5031717;28;20461;-70
2020/12/23 02:54:22;;;;;;;6.60;2.33;;;7.80;99.90;;;;;;5032965;28;20432;-70
2020/12/23 02:56:48;;;;;;;8.53;2.20;;;7.90;99.90;;;;;;5032359;28;20485;-70
2020/12/23 02:59:18;;;;;;;8.90;1.90;;;7.80;99.90;;;;;;5032834;28;20513;-70
2020/12/23 03:01:43;;;;;;;16.07;2.00;;;7.80;99.90;;;;;;5032960;28;20175;-70
2020/12/23 03:04:09;;;;;;;6.93;2.17;;;7.80;99.90;;;;;;5032953;28;20503;-70
2020/12/23 03:06:35;;;;;;;9.37;2.20;;;7.90;99.90;;;;;;5032564;28;20168;-70
2020/12/23 03:09:03;;;;;;;6.77;1.80;;;7.90;99.90;;;;;;5032398;28;20214;-69
2020/12/23 03:11:29;;;;;;;5.53;1.90;;;7.90;99.90;;;;;;5033047;28;20402;-69
2020/12/23 03:13:54;;;;;;;10.60;2.07;;;7.80;99.90;;;;;;5032759;28;20409;-70
2020/12/23 03:16:20;;;;;;;10.63;2.47;;;7.80;99.90;;;;;;5032261;28;20184;-70
2020/12/23 03:18:45;;;;;;;6.20;2.40;;;7.80;99.90;;;;;;5032509;28;20230;-70
2020/12/23 03:21:11;;;;;;;10.90;3.70;;;7.80;99.90;;;;;;5032393;28;20184;-69
2020/12/23 03:23:39;;;;;;;15.53;4.13;;;7.80;99.90;;;;;;5032577;28;20199;-69
2020/12/23 03:26:05;;;;;;;5.83;2.97;;;7.80;99.90;;;;;;5032707;28;20175;-69
2020/12/23 03:28:32;;;;;;;7.23;2.60;;;7.90;99.90;;;;;;5031807;28;20545;-69
2020/12/23 03:30:58;;;;;;;6.00;2.20;;;7.90;99.90;;;;;;5032517;28;20421;-69
2020/12/23 03:33:23;;;;;;;7.50;2.60;;;7.90;99.90;;;;;;5032378;28;20402;-70
2020/12/23 03:35:49;;;;;;;9.53;3.27;;;7.90;99.90;;;;;;5032360;28;20431;-70
2020/12/23 03:38:14;;;;;;;5.00;1.97;;;7.90;99.90;;;;;;5031865;28;20226;-70
2020/12/23 03:40:40;;;;;;;7.30;2.20;;;7.90;99.90;;;;;;5032274;28;20211;-70
2020/12/23 03:43:05;;;;;;;11.30;2.73;;;7.90;99.90;;;;;;5031661;28;20211;-69
2020/12/23 03:45:31;;;;;;;6.23;2.30;;;7.90;99.90;;;;;;5032320;28;20168;-69
2020/12/23 03:47:57;;;;;;;10.67;2.63;;;7.90;99.90;;;;;;5031597;28;20202;-69
2020/12/23 03:50:23;;;;;;;7.20;2.67;;;8.00;99.90;;;;;;5032003;28;20555;-69
2020/12/23 03:52:49;;;;;;;7.77;2.70;;;7.90;99.90;;;;;;5032458;28;20402;-70
2020/12/23 03:55:14;;;;;;;10.17;2.30;;;7.90;99.90;;;;;;5032332;28;20407;-70
2020/12/23 03:57:39;;;;;;;6.23;1.93;;;7.90;99.90;;;;;;5030276;28;20239;-69
2020/12/23 04:00:07;;;;;;;8.43;2.20;;;8.00;99.90;;;;;;5032082;28;20210;-69
2020/12/23 04:02:33;;;;;;;17.37;2.17;;;8.00;99.90;;;;;;5031900;28;20184;-69
2020/12/23 04:04:58;;;;;;;5.77;2.73;;;8.00;99.90;;;;;;5032099;28;20418;-69
2020/12/23 04:07:24;;;;;;;4.90;1.73;;;8.00;99.90;;;;;;5031719;28;20180;-70
2020/12/23 04:09:49;;;;;;;11.37;1.90;;;8.00;99.90;;;;;;5031549;28;20222;-70
2020/12/23 04:12:15;;;;;;;5.33;2.03;;;8.00;99.90;;;;;;5031908;28;20196;-70
2020/12/23 04:14:40;;;;;;;10.03;2.13;;;8.00;99.90;;;;;;5032227;28;20167;-70
2020/12/23 04:17:06;;;;;;;6.40;2.07;;;7.90;99.90;;;;;;5032048;28;20176;-70
2020/12/23 04:19:31;;;;;;;8.93;2.37;;;8.00;99.90;;;;;;5031449;28;20187;-71
2020/12/23 04:21:57;;;;;;;7.50;2.07;;;7.90;99.90;;;;;;5031704;28;20188;-68
2020/12/23 04:24:22;;;;;;;10.43;2.20;;;7.90;99.90;;;;;;5030714;28;20254;-69
2020/12/23 04:26:47;;;;;;;6.53;1.80;;;7.90;99.90;;;;;;5031797;28;20631;-68
2020/12/23 04:29:13;;;;;;;8.90;2.60;;;7.90;99.90;;;;;;5031091;28;20298;-70
2020/12/23 04:31:38;;;;;;;10.70;2.63;;;7.90;99.90;;;;;;5031601;28;20168;-70
2020/12/23 04:34:04;;;;;;;14.90;2.17;;;7.90;99.90;;;;;;5031630;28;20172;-69
2020/12/23 04:36:29;;;;;;;4.40;1.77;;;7.90;99.90;;;;;;5031477;28;20168;-70
2020/12/23 04:38:55;;;;;;;6.70;1.80;;;7.90;99.90;;;;;;5031590;28;20608;-69
2020/12/23 04:41:20;;;;;;;11.27;2.23;;;7.90;99.90;;;;;;5031585;28;20187;-69
2020/12/23 04:43:46;;;;;;;12.10;2.10;;;7.90;99.90;;;;;;5031706;28;20174;-70
2020/12/23 04:46:16;;;;;;;3.77;1.60;;;7.90;99.90;;;;;;5031477;28;20206;-70
2020/12/23 04:48:42;;;;;;;7.03;2.30;;;7.90;99.90;;;;;;5031290;28;20196;-70
2020/12/23 04:51:10;;;;;;;10.73;2.03;;;7.90;99.90;;;;;;5031580;28;20411;-70
2020/12/23 04:53:36;;;;;;;9.63;4.43;;;7.90;99.90;;;;;;5031441;28;20406;-69
2020/12/23 04:56:01;;;;;;;7.77;2.13;;;7.90;99.90;;;;;;5034524;28;20464;-69
2020/12/23 04:58:29;;;;;;;10.37;2.47;;;7.80;99.90;;;;;;5035178;28;20202;-69
2020/12/23 05:00:55;;;;;;;10.00;2.30;;;7.80;99.90;;;;;;5035292;28;20648;-69
2020/12/23 05:03:20;;;;;;;8.83;1.80;;;7.90;99.90;;;;;;5035060;28;20442;-69
2020/12/23 05:05:46;;;;;;;5.70;2.40;;;7.90;99.90;;;;;;5035236;28;20579;-69
2020/12/23 05:08:12;;;;;;;10.87;2.00;;;7.80;99.90;;;;;;5035071;28;20184;-71
2020/12/23 05:10:37;;;;;;;8.93;2.40;;;7.80;99.90;;;;;;5034872;28;20841;-70
2020/12/23 05:13:04;;;;;;;5.60;1.77;;;7.80;99.90;;;;;;5035179;28;20160;-70
2020/12/23 05:15:29;;;;;;;5.80;2.37;;;7.80;99.90;;;;;;5034959;28;20611;-70
2020/12/23 05:17:55;;;;;;;6.40;1.80;;;7.70;99.90;;;;;;5034858;28;20528;-70
2020/12/23 05:20:21;;;;;;;7.10;2.40;;;7.80;99.90;;;;;;5035290;28;20187;-70
2020/12/23 05:22:49;;;;;;;8.30;2.77;;;7.80;99.90;;;;;;5035054;28;20266;-70
2020/12/23 05:25:16;;;;;;;8.77;2.43;;;7.80;99.90;;;;;;5034875;28;20412;-70
2020/12/23 05:27:42;;;;;;;9.07;2.43;;;7.70;99.90;;;;;;5034733;28;20414;-70
2020/12/23 05:30:10;;;;;;;7.43;2.37;;;7.70;99.90;;;;;;5034845;28;20452;-70
2020/12/23 05:32:39;;;;;;;11.83;2.60;;;7.80;99.90;;;;;;5034650;28;20438;-70
2020/12/23 05:35:04;;;;;;;4.20;1.50;;;7.80;99.90;;;;;;5034998;28;20425;-70
2020/12/23 05:37:31;;;;;;;6.90;3.00;;;7.80;99.90;;;;;;5034422;28;20898;-70
2020/12/23 05:39:57;;;;;;;9.10;2.50;;;7.80;99.90;;;;;;5034468;28;20253;-70
2020/12/23 05:42:23;;;;;;;11.40;1.80;;;7.70;99.90;;;;;;5034551;28;20926;-70
2020/12/23 05:44:55;;;;;;;6.77;1.77;;;7.70;99.90;;;;;;5034555;28;20175;-70
2020/12/23 05:47:22;;;;;;;9.97;2.10;;;7.70;99.90;;;;;;5034554;28;20898;-70
2020/12/23 05:49:49;;;;;;;11.60;1.93;;;7.70;99.90;;;;;;5034406;28;20557;-70
2020/12/23 05:52:14;;;;;;;11.20;3.03;;;7.80;99.90;;;;;;5034690;28;20402;-70
2020/12/23 05:54:40;;;;;;;6.13;1.93;;;7.80;99.90;;;;;;5043123;28;20767;-70
2020/12/23 05:57:05;;;;;;;11.97;2.93;;;7.80;99.90;;;;;;5044808;28;20198;-70
2020/12/23 05:59:31;;;;;;;8.27;2.00;;;7.80;99.90;;;;;;5043694;28;20528;-70
2020/12/23 06:01:57;;;;;;;8.70;2.47;;;7.80;99.90;;;;;;5034618;28;20182;-70
2020/12/23 06:04:23;;;;;;;16.83;3.50;;;7.70;99.90;;;;;;5034295;28;20172;-70
2020/12/23 06:06:53;;;;;;;4.97;2.07;;;7.70;99.90;;;;;;5033548;28;20172;-70
2020/12/23 06:09:28;;;;;;;7.73;3.10;;;7.80;99.90;;;;;;5033946;28;20469;-70
2020/12/23 06:12:14;;;;;;;8.17;2.20;;;7.80;99.90;;;;;;5033978;28;20413;-70
2020/12/23 06:14:51;;;;;;;8.77;3.00;;;7.80;99.90;;;;;;5034089;28;20896;-70
2020/12/23 06:17:19;;;;;;;6.70;2.60;;;7.80;99.90;;;;;;5033784;28;20503;-70
2020/12/23 06:19:48;;;;;;;5.10;1.90;;;7.80;99.90;;;;;;5033715;28;20571;-70
2020/12/23 06:22:13;;;;;;;14.00;4.43;;;7.80;99.90;;;;;;5033934;28;20421;-69
2020/12/23 06:24:39;;;;;;;15.33;2.00;;;7.80;99.90;;;;;;5033817;28;20411;-70
2020/12/23 06:27:06;;;;;;;7.63;2.37;;;7.80;99.90;;;;;;5033880;28;20176;-69
2020/12/23 06:29:35;;;;;;;9.53;2.83;;;7.80;99.90;;;;;;5033793;28;20850;-70
2020/12/23 06:32:07;;;;;;;18.53;3.30;;;7.80;99.90;;;;;;5033805;28;20912;-70
2020/12/23 06:34:34;;;;;;;9.63;2.00;;;7.70;99.90;;;;;;5033531;28;20410;-69
2020/12/23 06:37:13;;;;;;;15.13;3.10;;;7.70;99.90;;;;;;5033324;28;20464;-69
2020/12/23 06:39:40;;;;;;;3.80;2.17;;;7.80;99.90;;;;;;5033415;28;20938;-70
2020/12/23 06:42:05;;;;;;;6.60;2.20;;;7.70;99.90;;;;;;5033558;28;20887;-70
2020/12/23 06:44:55;;;;;;;9.63;3.40;;;7.70;99.90;;;;;;5033415;28;20497;-70
2020/12/23 06:47:22;;;;;;;7.17;2.30;;;7.80;99.90;;;;;;5033303;28;20235;-71
2020/12/23 06:49:49;;;;;;;16.73;4.20;;;7.70;99.90;;;;;;5033003;28;20469;-70
2020/12/23 06:52:24;;;;;;;5.87;2.27;;;7.70;99.90;;;;;;5033285;28;20887;-70
2020/12/23 06:55:02;;;;;;;13.47;3.53;;;7.70;99.90;;;;;;5033270;28;20969;-70
2020/12/23 06:57:34;;;;;;;8.20;2.10;;;7.80;99.90;;;;;;5033174;28;20399;-70
2020/12/23 07:00:13;;;;;;;8.70;2.37;;;7.80;99.90;;;;;;5032903;28;20469;-70
2020/12/23 07:02:46;;;;;;;14.03;2.60;;;7.70;99.90;;;;;;5033251;28;20408;-70
2020/12/23 07:05:13;;;;;;;8.47;1.70;;;7.70;99.90;;;;;;5033266;28;20418;-70
2020/12/23 07:07:46;;;;;;;9.20;2.20;;;7.70;99.90;;;;;;5032889;28;20410;-70
2020/12/23 07:10:22;;;;;;;8.83;3.13;;;7.80;99.90;;;;;;5032731;28;20454;-70
2020/12/23 07:13:10;;;;;;;7.87;2.87;;;7.80;99.90;;;;;;5033066;28;20476;-70
2020/12/23 07:15:38;;;;;;;3.70;2.27;;;7.80;99.90;;;;;;5033076;28;20446;-70
2020/12/23 07:18:05;;;;;;;8.37;2.50;;;7.80;99.90;;;;;;5031848;28;20425;-71
2020/12/23 07:20:51;;;;;;;7.33;2.10;;;7.80;99.90;;;;;;5032610;28;20430;-70
2020/12/23 07:23:21;;;;;;;10.53;3.13;;;7.80;99.90;;;;;;5050351;28;20463;-70
2020/12/23 07:25:52;;;;;;;7.30;2.47;;;7.80;99.90;;;;;;5051487;28;20497;-70
2020/12/23 07:28:39;;;;;;;9.63;3.10;;;7.80;99.90;;;;;;5051075;28;20867;-70
2020/12/23 07:31:05;;;;;;;10.67;3.50;;;7.80;99.90;;;;;;5051972;28;20972;-70
2020/12/23 07:33:33;;;;;;;17.93;3.13;;;7.80;99.90;;;;;;5052366;28;20433;-70
2020/12/23 07:36:00;;;;;;;7.00;3.50;;;7.80;99.90;;;;;;5052299;28;20397;-70
2020/12/23 07:38:29;;;;;;;7.60;4.40;;;7.80;99.90;;;;;;5034777;28;20437;-70
2020/12/23 07:40:55;;;;;;;13.90;3.40;;;7.80;99.90;;;;;;5032628;28;20768;-70
2020/12/23 07:43:22;;;;;;;10.63;3.17;;;7.80;99.90;;;;;;5032142;28;20418;-70
2020/12/23 07:45:48;;;;;;;15.03;5.50;;;7.80;99.90;;;;;;5032118;28;20418;-70
2020/12/23 07:48:19;;;;;;;11.17;5.10;;;7.70;99.90;;;;;;5032168;28;20545;-70
2020/12/23 07:50:52;;;;;;;15.70;6.13;;;7.70;99.90;;;;;;5032422;28;20414;-70
2020/12/23 07:53:23;;;;;;;11.17;5.37;;;7.60;99.90;;;;;;5032411;28;20401;-70
2020/12/23 07:55:56;;;;;;;23.17;5.27;;;7.60;99.90;;;;;;5032064;28;20773;-70
2020/12/23 07:58:22;;;;;;;15.93;5.40;;;7.70;99.90;;;;;;5032045;28;20453;-70
2020/12/23 08:00:47;;;;;;;16.77;4.60;;;7.70;99.90;;;;;;5031986;28;20462;-70
2020/12/23 08:03:13;;;;;;;13.03;4.60;;;7.70;99.90;;;;;;5031694;28;20238;-71
2020/12/23 08:05:40;;;;;;;8.63;4.30;;;7.70;99.90;;;;;;5031905;28;20183;-70
2020/12/23 08:08:08;;;;;;;14.80;5.10;;;7.70;99.90;;;;;;5020762;28;20554;-70
2020/12/23 08:10:35;;;;;;;14.90;4.43;;;7.70;99.90;;;;;;5012152;28;20963;-70
2020/12/23 08:13:06;;;;;;;14.83;6.50;;;7.80;99.90;;;;;;5031583;28;20915;-71
2020/12/23 08:15:31;;;;;;;7.77;3.37;;;7.80;99.90;;;;;;5032258;28;20463;-71
2020/12/23 08:18:04;;;;;;;9.20;3.83;;;7.80;99.90;;;;;;5031723;28;20489;-71
2020/12/23 08:20:33;;;;;;;9.37;4.10;;;7.80;99.90;;;;;;5031863;28;20183;-71
2020/12/23 08:23:00;;;;;;;15.70;3.60;;;7.80;99.90;;;;;;5031815;28;20410;-71
2020/12/23 08:25:26;;;;;;;9.63;3.97;;;7.80;99.90;;;;;;5031793;28;20403;-70
2020/12/23 08:27:55;;;;;;;9.03;3.73;;;7.70;99.90;;;;;;5031510;28;20902;-71
2020/12/23 08:30:23;;;;;;;11.43;4.00;;;7.80;99.90;;;;;;5033860;28;20431;-70
2020/12/23 08:33:02;;;;;;;14.80;5.27;;;7.90;99.90;;;;;;5035735;28;20901;-71
2020/12/23 08:35:40;;;;;;;7.23;3.53;;;7.90;99.90;;;;;;5035896;28;20402;-70
2020/12/23 08:38:16;;;;;;;13.40;5.10;;;7.90;99.90;;;;;;5035532;28;20841;-70
2020/12/23 08:40:49;;;;;;;11.97;6.50;;;8.00;99.90;;;;;;5035705;28;20414;-70
2020/12/23 08:43:23;;;;;;;10.30;5.20;;;8.00;99.90;;;;;;5035873;28;20425;-70
2020/12/23 08:45:49;;;;;;;15.80;5.43;;;8.00;99.90;;;;;;5035488;28;20456;-71
2020/12/23 08:48:21;;;;;;;19.73;5.63;;;8.10;99.90;;;;;;5035160;28;21040;-71
2020/12/23 08:51:01;;;;;;;17.23;4.90;;;8.10;99.90;;;;;;5035385;28;20418;-71
2020/12/23 08:53:31;;;;;;;11.70;5.03;;;8.00;99.90;;;;;;5035414;28;20950;-70
2020/12/23 08:55:56;;;;;;;13.50;4.00;;;8.10;99.90;;;;;;5035536;28;20411;-70
2020/12/23 08:58:23;;;;;;;16.23;5.30;;;8.00;99.90;;;;;;5035124;28;20489;-71
2020/12/23 09:01:02;;;;;;;16.77;4.20;;;8.00;99.90;;;;;;5035226;28;20191;-69
2020/12/23 09:03:28;;;;;;;16.50;5.83;;;8.00;99.90;;;;;;5035297;28;20433;-69
2020/12/23 09:05:59;;;;;;;8.70;4.70;;;8.00;99.90;;;;;;5035481;28;20795;-70
2020/12/23 09:08:27;;;;;;;7.20;3.90;;;8.10;99.90;;;;;;5034975;28;20492;-70
2020/12/23 09:10:57;;;;;;;12.60;4.07;;;8.10;99.90;;;;;;5035121;28;20461;-70
2020/12/23 09:13:30;;;;;;;13.30;3.70;;;8.20;99.90;;;;;;5035081;28;20410;-70
2020/12/23 09:15:56;;;;;;;16.37;4.80;;;8.20;99.90;;;;;;5035103;28;20806;-70
2020/12/23 09:18:22;;;;;;;12.73;5.00;;;8.10;99.90;;;;;;5034871;28;20419;-70
2020/12/23 09:20:59;;;;;;;9.60;4.03;;;8.10;99.90;;;;;;5034814;28;20438;-70
2020/12/23 09:23:25;;;;;;;11.40;3.43;;;8.30;99.90;;;;;;5034745;28;20398;-70
2020/12/23 09:25:50;;;;;;;28.73;6.40;;;8.20;99.90;;;;;;5034752;28;20534;-71
2020/12/23 09:28:16;;;;;;;10.57;4.20;;;8.30;99.90;;;;;;5034608;28;20238;-71
2020/12/23 09:30:47;;;;;;;10.10;3.90;;;8.30;99.90;;;;;;5034698;28;20263;-70
2020/12/23 09:33:18;;;;;;;10.47;4.80;;;8.20;99.90;;;;;;5034740;28;20615;-70
2020/12/23 09:35:46;;;;;;;19.50;4.57;;;8.20;99.90;;;;;;5034605;28;20828;-70
2020/12/23 09:38:34;;;;;;;10.87;3.60;;;8.30;99.90;;;;;;5034587;28;20473;-70
2020/12/23 09:41:01;;;;;;;14.83;4.60;;;8.30;99.90;;;;;;5034163;28;20497;-71
2020/12/23 09:43:28;;;;;;;15.70;3.47;;;8.20;99.90;;;;;;5034539;28;20454;-70
2020/12/23 09:45:56;;;;;;;9.93;3.00;;;8.20;99.90;;;;;;5034585;28;20442;-70
2020/12/23 09:48:23;;;;;;;7.63;3.50;;;8.20;99.90;;;;;;5034342;28;20449;-70
2020/12/23 09:50:49;;;;;;;15.93;3.93;;;8.20;99.90;;;;;;5034246;28;20480;-71
2020/12/23 09:53:15;;;;;;;8.60;3.03;;;8.20;99.90;;;;;;5034484;28;20400;-70
2020/12/23 09:55:44;;;;;;;9.57;3.27;;;8.30;99.90;;;;;;5034543;28;20762;-70
2020/12/23 09:58:11;;;;;;;9.83;3.10;;;8.40;99.90;;;;;;5034308;28;20180;-70
2020/12/23 10:00:38;;;;;;;7.13;3.40;;;8.30;99.90;;;;;;5034616;28;20794;-70
2020/12/23 10:03:04;;;;;;;9.37;3.40;;;8.40;99.90;;;;;;5046300;28;20411;-71
2020/12/23 10:05:31;;;;;;;9.80;2.83;;;8.40;99.90;;;;;;5046674;28;20412;-70
2020/12/23 10:08:00;;;;;;;8.40;3.10;;;8.40;99.90;;;;;;5041157;28;20413;-70
2020/12/23 10:10:26;;;;;;;9.40;2.40;;;8.40;99.90;;;;;;5034128;28;20485;-70
2020/12/23 10:12:51;;;;;;;5.80;2.63;;;8.40;99.90;;;;;;5033961;28;20441;-70
2020/12/23 10:15:17;;;;;;;7.43;3.00;;;8.40;99.90;;;;;;5034095;28;20164;-76
2020/12/23 10:17:42;;;;;;;10.47;3.27;;;8.40;99.90;;;;;;5033686;28;20187;-70
2020/12/23 10:20:08;;;;;;;7.67;3.03;;;8.40;99.90;;;;;;5033714;28;20287;-69
2020/12/23 10:22:34;;;;;;;14.90;2.90;;;8.40;99.90;;;;;;5033925;28;20267;-69
2020/12/23 10:25:00;;;;;;;5.60;2.63;;;8.50;99.90;;;;;;5033634;28;20428;-68
2020/12/23 10:27:26;;;;;;;9.27;3.20;;;8.40;99.90;;;;;;5033896;28;20489;-69
2020/12/23 10:29:52;;;;;;;10.87;3.97;;;8.50;99.90;;;;;;5033904;28;20679;-70
2020/12/23 10:32:19;;;;;;;11.43;3.50;;;8.50;99.90;;;;;;5033796;28;20221;-70
2020/12/23 10:34:44;;;;;;;10.70;3.30;;;8.50;99.90;;;;;;5033622;28;20167;-69
2020/12/23 10:37:10;;;;;;;8.53;2.80;;;8.60;99.90;;;;;;5033433;28;20885;-69
2020/12/23 10:39:35;;;;;;;9.80;3.43;;;8.70;99.90;;;;;;5033941;28;20196;-71
2020/12/23 10:42:01;;;;;;;9.63;3.60;;;8.70;99.90;;;;;;5033452;28;20181;-70
2020/12/23 10:44:26;;;;;;;13.33;3.20;;;8.70;99.90;;;;;;5033395;28;20259;-70
2020/12/23 10:46:53;;;;;;;5.33;2.67;;;8.60;99.90;;;;;;5033449;28;20167;-70
2020/12/23 10:49:18;;;;;;;6.13;3.40;;;8.60;99.90;;;;;;5033074;28;20212;-70
2020/12/23 10:51:48;;;;;;;9.40;3.60;;;8.60;99.90;;;;;;5033536;28;20403;-70
2020/12/23 10:54:14;;;;;;;10.40;4.43;;;8.70;99.90;;;;;;5033313;28;20530;-70
2020/12/23 10:56:39;;;;;;;6.33;3.33;;;8.50;99.90;;;;;;5033147;28;20402;-70
2020/12/23 10:59:04;;;;;;;6.77;3.50;;;8.60;99.90;;;;;;5032979;28;20207;-70
2020/12/23 11:01:30;;;;;;;6.60;3.60;;;8.70;99.90;;;;;;5033437;28;20563;-72
2020/12/23 11:03:55;;;;;;;11.07;4.30;;;8.70;99.90;;;;;;5033085;28;20230;-79
2020/12/23 11:06:21;;;;;;;8.13;4.30;;;8.60;99.90;;;;;;5033161;28;20191;-72
2020/12/23 11:08:47;;;;;;;9.60;3.47;;;8.60;99.90;;;;;;5033258;28;20293;-70
2020/12/23 11:11:14;;;;;;;8.10;4.10;;;8.50;99.90;;;;;;5033059;28;20194;-70
2020/12/23 11:13:40;;;;;;;12.30;4.80;;;8.60;99.90;;;;;;5032918;28;20458;-70
2020/12/23 11:16:06;;;;;;;15.90;4.50;;;8.70;99.90;;;;;;5032817;28;20553;-70
2020/12/23 11:18:31;;;;;;;8.73;3.80;;;8.70;99.90;;;;;;5032595;28;20490;-71
2020/12/23 11:20:57;;;;;;;6.93;4.53;;;8.80;99.90;;;;;;5032945;28;20715;-71
2020/12/23 11:23:26;;;;;;;10.27;4.20;;;8.70;99.90;;;;;;5032631;28;20539;-71
2020/12/23 11:25:53;;;;;;;6.53;4.07;;;8.70;99.90;;;;;;5032746;28;20687;-70
2020/12/23 11:28:19;;;;;;;7.97;4.57;;;8.60;99.90;;;;;;5032472;28;20458;-69
2020/12/23 11:30:44;;;;;;;14.33;5.17;;;8.70;99.90;;;;;;5032484;28;20426;-70
2020/12/23 11:33:10;;;;;;;10.90;4.00;;;8.70;99.90;;;;;;5032418;28;20164;-70
2020/12/23 11:35:35;;;;;;;14.13;4.63;;;8.60;99.90;;;;;;5032588;28;20176;-70
2020/12/23 11:38:01;;;;;;;12.60;4.33;;;8.60;99.90;;;;;;5032485;28;20171;-70
2020/12/23 11:40:26;;;;;;;15.60;4.90;;;8.60;99.90;;;;;;5032224;28;20205;-70
2020/12/23 11:42:52;;;;;;;13.37;4.27;;;8.60;99.90;;;;;;5032190;28;20179;-70
2020/12/23 11:45:17;;;;;;;9.13;4.23;;;8.50;99.90;;;;;;5032152;28;20175;-70
2020/12/23 11:47:43;;;;;;;12.80;4.77;;;8.50;99.90;;;;;;5032142;28;20695;-70
2020/12/23 11:50:08;;;;;;;11.20;4.30;;;8.50;99.90;;;;;;5032116;28;20227;-70
2020/12/23 11:52:34;;;;;;;8.70;4.27;;;8.40;99.90;;;;;;5032350;28;20530;-70
2020/12/23 11:54:59;;;;;;;9.23;4.03;;;8.50;99.90;;;;;;5032238;28;20218;-70
2020/12/23 11:57:25;;;;;;;11.10;5.30;;;8.40;99.90;;;;;;5032188;28;20176;-70
2020/12/23 11:59:50;;;;;;;7.23;4.37;;;8.40;99.90;;;;;;5031997;28;20258;-70
2020/12/23 12:02:16;;;;;;;9.83;4.80;;;8.50;99.90;;;;;;5031667;28;20180;-69
2020/12/23 12:04:41;;;;;;;9.43;3.70;;;8.50;99.90;;;;;;5031539;28;20178;-70
2020/12/23 12:07:07;;;;;;;13.00;4.10;;;8.50;99.90;;;;;;5031733;28;20195;-70
2020/12/23 12:09:33;;;;;;;10.33;5.33;;;8.50;99.90;;;;;;5031771;28;20215;-70
2020/12/23 12:11:59;;;;;;;13.57;5.20;;;8.50;99.90;;;;;;5032098;28;20402;-70
2020/12/23 12:14:24;;;;;;;9.07;4.50;;;8.50;99.90;;;;;;5031987;28;20204;-70
2020/12/23 12:16:50;;;;;;;8.33;3.80;;;8.60;99.90;;;;;;5031797;28;20427;-70
2020/12/23 12:19:15;;;;;;;7.80;3.87;;;8.50;99.90;;;;;;5031811;28;20274;-70
2020/12/23 12:21:41;;;;;;;10.27;4.87;;;8.50;99.90;;;;;;5032127;28;20167;-70
2020/12/23 12:24:06;;;;;;;14.47;4.67;;;8.50;99.90;;;;;;5032054;28;20222;-70
2020/12/23 12:26:35;;;;;;;16.90;3.97;;;8.50;99.90;;;;;;5031824;28;20200;-70
2020/12/23 12:29:02;;;;;;;6.47;4.00;;;8.50;99.90;;;;;;5031630;28;20282;-70
2020/12/23 12:31:28;;;;;;;5.87;4.87;;;8.50;99.90;;;;;;5031612;28;20409;-70
2020/12/23 12:33:54;;;;;;;19.87;5.00;;;8.50;99.90;;;;;;5031671;28;20445;-70
2020/12/23 12:36:21;;;;;;;8.20;4.20;;;8.40;99.90;;;;;;5031772;28;20406;-70
2020/12/23 12:38:47;;;;;;;9.30;3.83;;;8.40;99.90;;;;;;5031638;28;20411;-70
2020/12/23 12:41:12;;;;;;;11.33;4.70;;;8.50;99.90;;;;;;5031813;28;20507;-71
2020/12/23 12:43:38;;;;;;;6.23;3.60;;;8.50;99.90;;;;;;5031800;28;20246;-73
2020/12/23 12:46:07;;;;;;;13.77;4.50;;;8.40;99.90;;;;;;5031540;28;20225;-70
2020/12/23 12:48:32;;;;;;;9.30;4.20;;;8.40;99.90;;;;;;5031434;28;20696;-70
2020/12/23 12:50:58;;;;;;;12.80;5.07;;;8.30;99.90;;;;;;5031720;28;20440;-70
2020/12/23 12:53:23;;;;;;;7.07;4.50;;;8.30;99.90;;;;;;5030398;28;20172;-70